Time;durP1;ratioP1;P1;durP2;ratioP2;P2;SDS_P1;SDS_P2;PMS_P1;PMS_P2;Temp;Humidity;BMP_temperature;BMP_pressure;BME280_temperature;BME280_humidity;BME280_pressure;Samples;Min_cycle;Max_cycle;Signal;HPM_P1;HPM_P2
2021/01/18 00:05:13;;;;;;;1.58;0.50;;;2.60;99.90;;;;;;10380602;28;20068;-54
2021/01/18 00:10:34;;;;;;;0.80;0.28;;;2.80;99.90;;;;;;10359933;28;20030;-54
2021/01/18 00:15:55;;;;;;;4.10;0.52;;;2.70;99.90;;;;;;10357742;28;20387;-54
2021/01/18 00:21:17;;;;;;;0.52;0.40;;;2.70;99.90;;;;;;10370909;28;20125;-53
2021/01/18 00:26:38;;;;;;;1.90;0.30;;;2.70;99.90;;;;;;10358113;28;20033;-54
2021/01/18 00:31:59;;;;;;;1.45;0.32;;;2.70;99.90;;;;;;10359996;28;20045;-54
2021/01/18 00:37:20;;;;;;;2.88;1.10;;;2.70;99.90;;;;;;10382604;28;20045;-54
2021/01/18 00:42:42;;;;;;;2.53;0.90;;;2.70;99.90;;;;;;10357994;28;20041;-54
2021/01/18 00:48:03;;;;;;;4.05;0.88;;;2.70;99.90;;;;;;10358405;28;20378;-54
2021/01/18 00:53:24;;;;;;;1.10;0.65;;;2.60;99.90;;;;;;10365187;28;20038;-53
2021/01/18 00:58:45;;;;;;;2.00;0.77;;;2.60;99.90;;;;;;10360920;28;20037;-54
2021/01/18 01:04:06;;;;;;;1.88;0.40;;;2.60;99.90;;;;;;10376935;28;20038;-53
2021/01/18 01:09:27;;;;;;;0.73;0.20;;;2.60;99.90;;;;;;10357399;28;20057;-54
2021/01/18 01:14:49;;;;;;;3.67;0.98;;;2.60;99.90;;;;;;10357370;28;20030;-54
2021/01/18 01:20:11;;;;;;;2.22;0.55;;;2.60;99.90;;;;;;10356982;28;20536;-54
2021/01/18 01:25:32;;;;;;;1.15;0.70;;;2.50;99.90;;;;;;10397880;28;20393;-54
2021/01/18 01:30:53;;;;;;;3.60;1.02;;;2.50;99.90;;;;;;10365238;28;20414;-53
2021/01/18 01:36:14;;;;;;;2.10;0.77;;;2.50;99.90;;;;;;10387790;28;20081;-53
2021/01/18 01:41:35;;;;;;;2.50;1.33;;;2.60;99.90;;;;;;10385315;28;20064;-53
2021/01/18 01:47:02;;;;;;;1.30;0.43;;;2.60;99.90;;;;;;10369626;28;20053;-54
2021/01/18 01:52:24;;;;;;;1.35;0.85;;;2.60;99.90;;;;;;10375989;28;20382;-54
2021/01/18 01:57:46;;;;;;;2.53;0.85;;;2.60;99.90;;;;;;10369837;28;20138;-53
2021/01/18 02:03:14;;;;;;;4.90;1.95;;;2.60;99.90;;;;;;10365205;28;20496;-53
2021/01/18 02:08:36;;;;;;;2.85;0.98;;;2.70;99.90;;;;;;10367229;28;20133;-54
2021/01/18 02:14:28;;;;;;;2.42;1.02;;;2.80;99.90;;;;;;10365888;28;20053;-53
2021/01/18 02:20:16;;;;;;;2.17;0.68;;;2.80;99.90;;;;;;10403029;28;20060;-53
2021/01/18 02:25:54;;;;;;;14.45;1.20;;;3.10;99.90;;;;;;10378317;28;20037;-53
2021/01/18 02:31:17;;;;;;;13.57;2.45;;;3.20;99.90;;;;;;10367266;28;20061;-53
2021/01/18 02:36:49;;;;;;;8.30;1.05;;;3.10;99.90;;;;;;10376432;28;20065;-53
2021/01/18 02:42:24;;;;;;;2.30;0.88;;;3.10;99.90;;;;;;10376696;28;20045;-56
2021/01/18 02:47:46;;;;;;;3.47;0.95;;;3.20;99.90;;;;;;10367104;28;20589;-53
2021/01/18 02:53:09;;;;;;;6.40;1.17;;;3.30;99.90;;;;;;10383392;28;20587;-53
2021/01/18 02:58:33;;;;;;;2.70;1.00;;;3.40;99.90;;;;;;10376021;28;20561;-53
2021/01/18 03:04:06;;;;;;;8.02;2.28;;;3.50;99.90;;;;;;10364197;28;20076;-54
2021/01/18 03:09:36;;;;;;;0.82;0.45;;;3.60;99.90;;;;;;10404306;28;20105;-53
2021/01/18 03:14:59;;;;;;;6.97;1.83;;;3.50;99.90;;;;;;10365118;28;20026;-53
2021/01/18 03:20:20;;;;;;;3.88;1.15;;;3.50;99.90;;;;;;10384483;28;20041;-53
2021/01/18 03:25:49;;;;;;;2.80;0.98;;;3.50;99.90;;;;;;10367741;28;20038;-53
2021/01/18 03:31:09;;;;;;;5.20;1.00;;;3.30;99.90;;;;;;10369104;28;20076;-53
2021/01/18 03:36:31;;;;;;;8.32;2.45;;;3.40;99.90;;;;;;10376783;28;20285;-54
2021/01/18 03:41:52;;;;;;;3.55;1.38;;;3.30;99.90;;;;;;10378175;28;20125;-54
2021/01/18 03:47:13;;;;;;;4.65;1.70;;;3.40;99.90;;;;;;10375163;28;20045;-54
2021/01/18 03:52:34;;;;;;;3.80;1.10;;;3.50;99.90;;;;;;10360987;28;20041;-53
2021/01/18 03:57:56;;;;;;;1.98;1.02;;;3.50;99.90;;;;;;10361245;28;20096;-54
2021/01/18 04:03:19;;;;;;;2.95;1.42;;;3.30;99.90;;;;;;10358791;28;20128;-53
2021/01/18 04:08:40;;;;;;;2.85;1.40;;;3.30;99.90;;;;;;10360960;28;20037;-53
2021/01/18 04:14:02;;;;;;;1.25;0.43;;;3.20;99.90;;;;;;10373122;28;20049;-54
2021/01/18 04:19:23;;;;;;;1.08;0.90;;;3.30;99.90;;;;;;10405050;28;20454;-54
2021/01/18 04:24:44;;;;;;;3.88;0.82;;;3.30;99.90;;;;;;10357597;28;20054;-54
2021/01/18 04:30:07;;;;;;;6.35;1.00;;;3.30;99.90;;;;;;10360088;28;20041;-54
2021/01/18 04:35:28;;;;;;;2.20;1.17;;;3.30;99.90;;;;;;10383204;28;20371;-53
2021/01/18 04:40:49;;;;;;;10.05;1.13;;;3.30;99.90;;;;;;10373621;28;20064;-54
2021/01/18 04:46:16;;;;;;;2.38;0.90;;;3.30;99.90;;;;;;10381294;28;20504;-54
2021/01/18 04:51:42;;;;;;;2.10;1.00;;;3.40;99.90;;;;;;10358073;28;20379;-54
2021/01/18 04:57:19;;;;;;;3.63;1.30;;;3.40;99.90;;;;;;10388374;28;20026;-54
2021/01/18 05:02:46;;;;;;;2.53;1.08;;;3.60;99.90;;;;;;10371802;28;20044;-54
2021/01/18 05:08:36;;;;;;;4.82;1.35;;;3.60;99.90;;;;;;10358444;28;20034;-54
2021/01/18 05:14:01;;;;;;;4.47;1.42;;;3.80;99.90;;;;;;10366305;28;20045;-54
2021/01/18 05:19:24;;;;;;;4.03;1.15;;;3.80;99.90;;;;;;10378430;28;20133;-55
2021/01/18 05:24:45;;;;;;;5.30;1.35;;;3.70;99.90;;;;;;10405867;28;20029;-54
2021/01/18 05:30:06;;;;;;;4.50;1.55;;;3.80;99.90;;;;;;10373304;28;20390;-53
2021/01/18 05:35:28;;;;;;;13.40;2.30;;;4.00;99.90;;;;;;10367717;28;20150;-54
2021/01/18 05:40:50;;;;;;;3.17;1.13;;;3.90;99.90;;;;;;10365205;28;20045;-54
2021/01/18 05:46:12;;;;;;;3.13;1.30;;;3.90;99.90;;;;;;10365220;28;20240;-53
2021/01/18 05:51:34;;;;;;;2.85;1.30;;;3.90;99.90;;;;;;10370319;28;20334;-53
2021/01/18 05:56:56;;;;;;;2.65;1.10;;;3.80;99.90;;;;;;10365758;28;20464;-53
2021/01/18 06:02:22;;;;;;;8.80;1.60;;;3.80;99.90;;;;;;10374971;28;20816;-54
2021/01/18 06:07:43;;;;;;;2.50;0.73;;;3.80;99.90;;;;;;10364561;28;20038;-53
2021/01/18 06:13:26;;;;;;;2.90;0.98;;;3.90;99.90;;;;;;10373305;28;20034;-54
2021/01/18 06:19:03;;;;;;;4.35;1.00;;;4.00;99.90;;;;;;10365119;28;20038;-54
2021/01/18 06:24:28;;;;;;;4.75;1.65;;;3.90;99.90;;;;;;10403650;28;20105;-53
2021/01/18 06:29:49;;;;;;;12.55;0.90;;;4.00;99.90;;;;;;10366133;28;20045;-53
2021/01/18 06:35:10;;;;;;;6.38;1.85;;;4.00;99.90;;;;;;10362905;28;20030;-53
2021/01/18 06:40:37;;;;;;;2.22;1.00;;;4.10;99.90;;;;;;10364571;28;20046;-54
2021/01/18 06:45:58;;;;;;;4.60;1.25;;;4.00;99.90;;;;;;10368507;28;20526;-54
2021/01/18 06:51:24;;;;;;;6.53;1.60;;;4.00;99.90;;;;;;10363977;28;20038;-54
2021/01/18 06:57:00;;;;;;;4.80;1.40;;;4.00;99.90;;;;;;10397741;28;20034;-53
2021/01/18 07:02:27;;;;;;;7.18;1.30;;;4.10;99.90;;;;;;10394143;28;20034;-53
2021/01/18 07:07:56;;;;;;;3.42;1.60;;;4.10;99.90;;;;;;10386005;28;20113;-54
2021/01/18 07:13:20;;;;;;;13.57;1.27;;;4.10;99.90;;;;;;10364007;28;20484;-54
2021/01/18 07:18:45;;;;;;;3.90;1.30;;;4.10;99.90;;;;;;10361372;28;20038;-53
2021/01/18 07:24:13;;;;;;;3.63;0.98;;;4.10;99.90;;;;;;10361254;28;20030;-53
2021/01/18 07:29:34;;;;;;;4.28;1.55;;;4.10;99.90;;;;;;10380528;28;20041;-54
2021/01/18 07:34:56;;;;;;;1.90;1.27;;;4.10;99.90;;;;;;10371676;28;20033;-54
2021/01/18 07:40:18;;;;;;;6.40;1.35;;;4.00;99.90;;;;;;10397237;28;20029;-54
2021/01/18 07:45:39;;;;;;;4.40;1.25;;;4.00;99.90;;;;;;10392736;28;20100;-54
2021/01/18 07:51:03;;;;;;;6.22;1.45;;;4.00;99.90;;;;;;10377688;28;20026;-54
2021/01/18 07:56:33;;;;;;;3.95;1.10;;;4.00;99.90;;;;;;10376835;28;20022;-54
2021/01/18 08:01:57;;;;;;;5.32;1.30;;;4.10;99.90;;;;;;10391698;28;20042;-53
2021/01/18 08:07:18;;;;;;;3.00;1.45;;;4.10;99.90;;;;;;10383730;28;20522;-53
2021/01/18 08:12:39;;;;;;;3.58;1.52;;;4.20;99.90;;;;;;10358354;28;20038;-53
2021/01/18 08:18:26;;;;;;;3.75;1.17;;;4.10;99.90;;;;;;10399895;28;20067;-53
2021/01/18 08:23:47;;;;;;;1.77;0.75;;;4.20;99.90;;;;;;10362547;28;20048;-53
2021/01/18 08:29:35;;;;;;;3.63;1.77;;;4.20;99.90;;;;;;10372765;28;20030;-54
2021/01/18 08:35:03;;;;;;;4.38;0.85;;;4.30;99.90;;;;;;10375574;28;20038;-53
2021/01/18 08:40:32;;;;;;;4.93;1.48;;;4.40;99.90;;;;;;10358684;28;20033;-53
2021/01/18 08:45:56;;;;;;;8.63;1.33;;;4.40;99.90;;;;;;10357493;28;20050;-53
2021/01/18 08:51:43;;;;;;;6.25;1.00;;;4.50;99.90;;;;;;10373007;28;20025;-53
2021/01/18 08:57:24;;;;;;;6.85;1.38;;;4.50;99.90;;;;;;10399048;28;20057;-53
2021/01/18 09:02:49;;;;;;;5.85;2.70;;;4.60;99.90;;;;;;10378945;28;20461;-54
2021/01/18 09:08:13;;;;;;;4.50;1.40;;;4.60;99.90;;;;;;10373971;28;20030;-53
2021/01/18 09:13:37;;;;;;;2.58;1.27;;;4.70;99.90;;;;;;10361593;28;20034;-53
2021/01/18 09:19:07;;;;;;;12.15;1.92;;;4.80;99.90;;;;;;10393782;28;20274;-53
2021/01/18 09:24:30;;;;;;;4.22;2.70;;;5.00;99.90;;;;;;10352057;28;20108;-53
2021/01/18 09:30:09;;;;;;;5.93;1.35;;;5.30;99.90;;;;;;10361783;28;20509;-53
2021/01/18 09:35:34;;;;;;;5.65;1.73;;;5.40;99.90;;;;;;10351453;28;20026;-53
2021/01/18 09:40:55;;;;;;;7.07;1.92;;;5.40;99.90;;;;;;10351447;28;20120;-53
2021/01/18 09:46:16;;;;;;;1.88;0.95;;;5.60;99.90;;;;;;10391456;28;20132;-53
2021/01/18 09:51:37;;;;;;;2.20;1.15;;;5.60;99.90;;;;;;10358504;28;20048;-53
2021/01/18 09:57:04;;;;;;;8.40;1.38;;;5.50;99.90;;;;;;10390852;28;20382;-53
2021/01/18 10:02:26;;;;;;;7.60;1.52;;;5.50;99.90;;;;;;10399839;28;20050;-53
2021/01/18 10:07:51;;;;;;;2.25;1.33;;;5.60;99.90;;;;;;10398564;28;20033;-53
2021/01/18 10:13:16;;;;;;;3.03;1.58;;;5.70;99.90;;;;;;10359155;28;20034;-53
2021/01/18 10:18:41;;;;;;;5.95;1.42;;;5.80;99.90;;;;;;10376818;28;20161;-53
2021/01/18 10:24:01;;;;;;;2.88;1.10;;;5.80;99.90;;;;;;10367357;28;20034;-53
2021/01/18 10:29:23;;;;;;;9.32;2.28;;;5.80;99.90;;;;;;10363637;28;20121;-53
2021/01/18 10:34:44;;;;;;;5.05;1.27;;;5.90;99.90;;;;;;10372253;28;20030;-53
2021/01/18 10:40:06;;;;;;;5.93;1.00;;;5.90;99.90;;;;;;10363175;28;20045;-53
2021/01/18 10:45:28;;;;;;;6.57;1.23;;;5.90;99.90;;;;;;10363278;28;20045;-53
2021/01/18 10:50:55;;;;;;;3.15;0.88;;;5.80;99.90;;;;;;10367485;28;20367;-53
2021/01/18 10:56:17;;;;;;;2.35;0.75;;;5.90;99.90;;;;;;10389726;28;20057;-53
2021/01/18 11:01:38;;;;;;;1.42;0.70;;;6.00;99.90;;;;;;10362375;28;20052;-53
2021/01/18 11:07:00;;;;;;;5.45;0.82;;;5.90;99.90;;;;;;10366534;28;20087;-53
2021/01/18 11:12:29;;;;;;;2.67;0.88;;;6.00;99.90;;;;;;10381213;28;20038;-53
2021/01/18 11:17:52;;;;;;;3.15;1.02;;;6.00;99.90;;;;;;10361678;28;20037;-53
2021/01/18 11:23:13;;;;;;;9.43;1.45;;;6.00;99.90;;;;;;10401578;28;20040;-53
2021/01/18 11:28:34;;;;;;;5.85;1.45;;;6.00;99.90;;;;;;10373452;28;20038;-53
2021/01/18 11:33:55;;;;;;;3.15;0.98;;;6.10;99.90;;;;;;10362181;28;20037;-53
2021/01/18 11:39:16;;;;;;;12.52;1.88;;;6.00;99.90;;;;;;10364710;28;20042;-53
2021/01/18 11:44:37;;;;;;;2.63;0.75;;;6.00;99.90;;;;;;10362160;28;20038;-53
2021/01/18 11:49:58;;;;;;;6.90;1.23;;;6.10;99.90;;;;;;10366706;28;20148;-53
2021/01/18 11:55:19;;;;;;;6.72;0.65;;;6.10;99.90;;;;;;10360903;28;20605;-53
2021/01/18 12:00:41;;;;;;;2.33;0.60;;;6.10;99.90;;;;;;10374299;28;20046;-53
2021/01/18 12:06:02;;;;;;;4.13;1.35;;;6.20;99.90;;;;;;10354656;28;20034;-53
2021/01/18 12:11:23;;;;;;;1.08;0.40;;;6.40;99.90;;;;;;10377892;28;20604;-52
2021/01/18 12:16:44;;;;;;;2.13;0.75;;;6.60;99.90;;;;;;10360950;28;20467;-53
2021/01/18 12:22:05;;;;;;;10.90;0.73;;;6.80;99.90;;;;;;10360264;28;20034;-53
2021/01/18 12:27:26;;;;;;;2.63;1.02;;;6.90;99.90;;;;;;10381609;28;20087;-53
2021/01/18 12:32:47;;;;;;;3.08;0.70;;;7.00;99.90;;;;;;10358251;28;20444;-53
2021/01/18 12:38:08;;;;;;;8.07;0.63;;;7.00;99.90;;;;;;10369632;28;20057;-52
2021/01/18 12:43:29;;;;;;;1.90;0.45;;;7.10;99.90;;;;;;10398201;28;20079;-53
2021/01/18 12:48:50;;;;;;;6.82;0.60;;;7.10;99.90;;;;;;10361003;28;20050;-53
2021/01/18 12:54:11;;;;;;;3.38;1.73;;;7.10;99.90;;;;;;10358908;28;20029;-52
2021/01/18 12:59:32;;;;;;;1.60;0.65;;;7.30;99.90;;;;;;10405469;28;20046;-52
2021/01/18 13:04:53;;;;;;;12.30;0.60;;;7.40;99.90;;;;;;10376326;28;20034;-53
2021/01/18 13:10:15;;;;;;;2.45;0.47;;;7.40;99.90;;;;;;10359645;28;20041;-52
2021/01/18 13:15:36;;;;;;;4.10;0.60;;;7.50;99.90;;;;;;10357142;28;20057;-52
2021/01/18 13:20:57;;;;;;;1.23;0.40;;;7.30;99.90;;;;;;10357380;28;20062;-53
2021/01/18 13:26:21;;;;;;;4.68;0.95;;;7.40;99.90;;;;;;10363074;28;20079;-52
2021/01/18 13:31:43;;;;;;;4.68;1.02;;;7.20;99.90;;;;;;10397505;28;20075;-52
2021/01/18 13:37:04;;;;;;;3.55;1.30;;;7.20;99.90;;;;;;10367261;28;20026;-52
2021/01/18 13:42:25;;;;;;;2.40;0.50;;;7.20;99.90;;;;;;10394361;28;20037;-52
2021/01/18 13:47:46;;;;;;;2.08;0.40;;;7.10;99.90;;;;;;10383270;28;20050;-52
2021/01/18 13:53:07;;;;;;;4.65;1.08;;;7.00;99.90;;;;;;10399155;28;20042;-52
2021/01/18 13:58:28;;;;;;;1.27;0.70;;;7.10;99.90;;;;;;10365182;28;20041;-52
2021/01/18 14:03:51;;;;;;;2.63;0.68;;;7.00;99.90;;;;;;10364148;28;20038;-52
2021/01/18 14:09:17;;;;;;;6.85;0.40;;;7.00;99.90;;;;;;10393789;28;20662;-52
2021/01/18 14:14:38;;;;;;;0.25;0.10;;;7.20;99.90;;;;;;10364593;28;20053;-52
2021/01/18 14:19:59;;;;;;;0.70;0.30;;;7.20;99.90;;;;;;10369955;28;20546;-52
2021/01/18 14:25:20;;;;;;;4.35;0.45;;;7.40;99.90;;;;;;10357974;28;20038;-52
2021/01/18 14:30:41;;;;;;;2.15;0.35;;;7.40;99.90;;;;;;10366366;28;20068;-52
2021/01/18 14:36:04;;;;;;;1.27;0.30;;;7.20;99.90;;;;;;10378426;28;20034;-52
2021/01/18 14:41:27;;;;;;;3.03;0.90;;;7.20;99.90;;;;;;10357351;28;20052;-52
2021/01/18 14:46:48;;;;;;;0.20;0.10;;;7.00;99.90;;;;;;10370519;28;20388;-52
2021/01/18 14:52:09;;;;;;;3.63;0.20;;;7.10;99.90;;;;;;10377389;28;20088;-52
2021/01/18 14:57:33;;;;;;;6.65;0.70;;;7.00;99.90;;;;;;10367527;28;20496;-52
2021/01/18 15:02:53;;;;;;;5.25;0.35;;;6.90;99.90;;;;;;10359799;28;20125;-52
2021/01/18 15:08:15;;;;;;;1.60;0.40;;;6.80;99.90;;;;;;10365206;28;20034;-52
2021/01/18 15:13:36;;;;;;;5.65;1.55;;;6.90;99.90;;;;;;10368299;28;20734;-52
2021/01/18 15:18:57;;;;;;;1.05;0.60;;;6.70;99.90;;;;;;10362673;28;20037;-52
2021/01/18 15:24:18;;;;;;;2.28;0.30;;;6.70;99.90;;;;;;10369450;28;20042;-52
2021/01/18 15:29:40;;;;;;;3.17;0.22;;;6.60;99.90;;;;;;10364700;28;20160;-52
2021/01/18 15:35:05;;;;;;;2.40;0.47;;;6.70;99.90;;;;;;10379995;28;20041;-52
2021/01/18 15:40:25;;;;;;;2.47;0.32;;;6.40;99.90;;;;;;10363243;28;20108;-52
2021/01/18 15:45:46;;;;;;;7.13;0.30;;;6.40;99.90;;;;;;10369988;28;20394;-52
2021/01/18 15:51:15;;;;;;;0.57;0.15;;;6.30;99.90;;;;;;10367136;28;20026;-52
2021/01/18 15:56:36;;;;;;;2.05;0.30;;;6.20;99.90;;;;;;10365648;28;20428;-52
2021/01/18 16:01:59;;;;;;;0.75;0.40;;;6.10;99.90;;;;;;10373144;28;20073;-52
2021/01/18 16:07:20;;;;;;;6.72;0.80;;;6.00;99.90;;;;;;10369144;28;20029;-52
2021/01/18 16:12:42;;;;;;;0.68;0.15;;;6.10;99.90;;;;;;10360759;28;20099;-52
2021/01/18 16:18:03;;;;;;;0.77;0.28;;;6.10;99.90;;;;;;10368898;28;20022;-52
2021/01/18 16:23:24;;;;;;;1.50;0.50;;;6.10;99.90;;;;;;10358543;28;20034;-52
2021/01/18 16:28:47;;;;;;;4.68;0.80;;;6.20;99.90;;;;;;10366349;28;20088;-52
2021/01/18 16:34:08;;;;;;;1.45;0.47;;;6.10;99.90;;;;;;10367204;28;20026;-52
2021/01/18 16:39:29;;;;;;;0.68;0.40;;;6.10;99.90;;;;;;10387903;28;20038;-52
2021/01/18 16:44:50;;;;;;;1.73;0.70;;;6.00;99.90;;;;;;10357900;28;20136;-53
2021/01/18 16:50:13;;;;;;;4.18;0.60;;;5.90;99.90;;;;;;10374309;28;20128;-52
2021/01/18 16:55:34;;;;;;;1.83;0.57;;;5.90;99.90;;;;;;10357304;28;20030;-52
2021/01/18 17:00:55;;;;;;;2.55;0.80;;;5.90;99.90;;;;;;10395560;28;20038;-52
2021/01/18 17:06:17;;;;;;;3.55;0.80;;;5.80;99.90;;;;;;10376392;28;20022;-53
2021/01/18 17:11:40;;;;;;;5.20;0.85;;;5.80;99.90;;;;;;10376285;28;20121;-52
2021/01/18 17:17:01;;;;;;;1.70;0.50;;;5.70;99.90;;;;;;10381384;28;20023;-52
2021/01/18 17:22:24;;;;;;;0.45;0.20;;;5.80;99.90;;;;;;10360044;28;20034;-52
2021/01/18 17:27:45;;;;;;;4.03;0.95;;;5.80;99.90;;;;;;10356129;28;20026;-52
2021/01/18 17:33:06;;;;;;;0.57;0.32;;;5.80;99.90;;;;;;10373278;28;20168;-52
2021/01/18 17:38:27;;;;;;;5.13;1.60;;;5.80;99.90;;;;;;10386444;28;20030;-52
2021/01/18 17:43:48;;;;;;;2.95;0.77;;;5.90;99.90;;;;;;10367691;28;20046;-52
2021/01/18 17:49:12;;;;;;;2.78;0.68;;;5.70;99.90;;;;;;10307558;28;1410034;-52
2021/01/18 17:54:33;;;;;;;3.40;1.27;;;5.80;99.90;;;;;;10369447;28;20041;-52
2021/01/18 17:59:54;;;;;;;3.42;0.73;;;5.80;99.90;;;;;;10356411;28;20041;-52
2021/01/18 18:05:15;;;;;;;0.70;0.45;;;5.90;99.90;;;;;;10356056;28;20375;-52
2021/01/18 18:10:36;;;;;;;3.92;1.00;;;5.80;99.90;;;;;;10386963;28;20121;-52
2021/01/18 18:15:57;;;;;;;2.00;0.60;;;5.70;99.90;;;;;;10392342;28;20653;-52
2021/01/18 18:21:29;;;;;;;7.20;0.65;;;5.70;99.90;;;;;;10396551;28;20037;-52
2021/01/18 18:26:51;;;;;;;3.70;0.73;;;5.60;99.90;;;;;;10364288;28;20030;-54
2021/01/18 18:32:11;;;;;;;2.50;1.00;;;5.60;99.90;;;;;;10403615;28;20033;-52
2021/01/18 18:37:32;;;;;;;1.05;0.57;;;5.60;99.90;;;;;;10382097;28;20112;-52
2021/01/18 18:42:53;;;;;;;2.90;1.02;;;5.70;99.90;;;;;;10366195;28;20041;-53
2021/01/18 18:48:14;;;;;;;2.50;0.95;;;5.70;99.90;;;;;;10362536;28;20046;-53
2021/01/18 18:53:35;;;;;;;2.78;1.33;;;5.60;99.90;;;;;;10376857;28;20114;-52
2021/01/18 18:58:56;;;;;;;2.70;1.27;;;5.50;99.90;;;;;;10363178;28;20066;-52
2021/01/18 19:04:17;;;;;;;6.65;1.85;;;5.60;99.90;;;;;;10364287;28;20677;-53
2021/01/18 19:09:39;;;;;;;5.78;1.65;;;5.50;99.90;;;;;;10362147;28;20045;-52
2021/01/18 19:15:00;;;;;;;3.92;1.35;;;5.60;99.90;;;;;;10360395;28;20568;-52
2021/01/18 19:20:21;;;;;;;8.77;1.10;;;5.50;99.90;;;;;;10386790;28;20034;-52
2021/01/18 19:25:42;;;;;;;2.85;1.10;;;5.50;99.90;;;;;;10366281;28;20034;-52
2021/01/18 19:31:04;;;;;;;4.43;2.17;;;5.50;99.90;;;;;;10360709;28;20048;-52
2021/01/18 19:36:26;;;;;;;4.18;1.77;;;5.50;99.90;;;;;;10366788;28;20044;-52
2021/01/18 19:41:48;;;;;;;6.63;2.08;;;5.50;99.90;;;;;;10363078;28;20038;-53
2021/01/18 19:47:10;;;;;;;12.38;3.05;;;5.50;99.90;;;;;;10361027;28;20049;-53
2021/01/18 19:52:31;;;;;;;4.65;2.10;;;5.50;99.90;;;;;;10361408;28;20037;-53
2021/01/18 19:57:52;;;;;;;7.78;2.20;;;5.60;99.90;;;;;;10361012;28;20896;-53
2021/01/18 20:03:12;;;;;;;3.95;1.55;;;5.50;99.90;;;;;;10367529;28;20095;-52
2021/01/18 20:08:34;;;;;;;6.22;2.03;;;5.50;99.90;;;;;;10363329;28;20489;-52
2021/01/18 20:13:55;;;;;;;6.28;2.15;;;5.50;99.90;;;;;;10360790;28;20030;-53
2021/01/18 20:19:17;;;;;;;6.05;2.35;;;5.50;99.90;;;;;;10365180;28;20040;-52
2021/01/18 20:24:37;;;;;;;8.57;3.42;;;5.60;99.90;;;;;;10374310;28;20041;-52
2021/01/18 20:29:59;;;;;;;7.63;2.50;;;5.40;99.90;;;;;;10365196;28;20037;-53
2021/01/18 20:35:20;;;;;;;9.60;3.00;;;5.50;99.90;;;;;;10359137;28;20133;-53
2021/01/18 20:40:40;;;;;;;7.28;3.45;;;5.40;99.90;;;;;;10357211;28;20038;-52
2021/01/18 20:46:01;;;;;;;12.35;3.92;;;5.40;99.90;;;;;;10365640;28;20401;-53
2021/01/18 20:51:22;;;;;;;12.57;2.30;;;5.50;99.90;;;;;;10361095;28;20042;-53
2021/01/18 20:56:44;;;;;;;4.10;1.60;;;5.60;99.90;;;;;;10371845;28;20131;-52
2021/01/18 21:02:07;;;;;;;6.97;2.65;;;5.70;99.90;;;;;;10366889;28;20045;-53
2021/01/18 21:07:27;;;;;;;8.13;3.72;;;5.70;99.90;;;;;;10366054;28;20053;-53
2021/01/18 21:12:49;;;;;;;5.47;1.90;;;5.50;99.90;;;;;;10361399;28;20859;-53
2021/01/18 21:18:10;;;;;;;5.60;2.13;;;5.50;99.90;;;;;;10377201;28;20033;-52
2021/01/18 21:23:31;;;;;;;10.75;2.13;;;5.40;99.90;;;;;;10358516;28;20406;-53
2021/01/18 21:28:52;;;;;;;5.00;1.80;;;5.40;99.90;;;;;;10357823;28;20037;-53
2021/01/18 21:34:17;;;;;;;5.07;2.30;;;5.40;99.90;;;;;;10361985;28;20049;-53
2021/01/18 21:39:38;;;;;;;6.45;2.28;;;5.40;99.90;;;;;;10374570;28;20042;-53
2021/01/18 21:45:01;;;;;;;3.15;1.77;;;5.40;99.90;;;;;;10357389;28;20054;-52
2021/01/18 21:50:22;;;;;;;7.35;2.72;;;5.40;99.90;;;;;;10373079;28;20077;-53
2021/01/18 21:55:43;;;;;;;7.93;3.50;;;5.30;99.90;;;;;;10365624;28;20053;-52
2021/01/18 22:01:05;;;;;;;6.38;3.08;;;5.30;99.90;;;;;;10370342;28;20577;-53
2021/01/18 22:06:26;;;;;;;5.57;3.05;;;5.30;99.90;;;;;;10372297;28;20049;-53
2021/01/18 22:11:47;;;;;;;14.15;3.00;;;5.30;99.90;;;;;;10366483;28;20124;-52
2021/01/18 22:17:08;;;;;;;7.95;3.03;;;5.30;99.90;;;;;;10366749;28;20041;-53
2021/01/18 22:22:32;;;;;;;6.65;2.35;;;5.40;99.90;;;;;;10368548;28;20064;-53
2021/01/18 22:27:53;;;;;;;10.75;3.55;;;5.50;99.90;;;;;;10364656;28;20049;-53
2021/01/18 22:33:14;;;;;;;13.52;4.38;;;5.50;99.90;;;;;;10366814;28;21240;-53
2021/01/18 22:38:35;;;;;;;8.15;3.95;;;5.60;99.90;;;;;;10368413;28;20041;-53
2021/01/18 22:43:56;;;;;;;10.38;3.35;;;5.60;99.90;;;;;;10365999;28;20161;-53
2021/01/18 22:49:17;;;;;;;7.00;3.03;;;5.70;99.90;;;;;;10368771;28;20042;-52
2021/01/18 22:54:38;;;;;;;10.68;4.22;;;5.80;99.90;;;;;;10378415;28;20040;-53
2021/01/18 22:59:59;;;;;;;9.48;4.45;;;5.90;99.90;;;;;;10378514;28;20040;-52
2021/01/18 23:05:20;;;;;;;10.13;4.35;;;5.90;99.90;;;;;;10365500;28;20038;-52
2021/01/18 23:10:41;;;;;;;8.85;3.28;;;6.00;99.90;;;;;;10356050;28;20041;-52
2021/01/18 23:16:02;;;;;;;6.82;2.83;;;6.00;99.90;;;;;;10357562;28;20038;-52
2021/01/18 23:21:23;;;;;;;7.65;3.08;;;6.10;99.90;;;;;;10356482;28;20045;-53
2021/01/18 23:26:44;;;;;;;7.90;2.95;;;6.10;99.90;;;;;;10357080;28;20080;-52
2021/01/18 23:32:05;;;;;;;6.78;2.30;;;6.10;99.90;;;;;;10356118;28;20402;-53
2021/01/18 23:37:26;;;;;;;7.28;2.88;;;6.20;99.90;;;;;;10355733;28;20053;-52
2021/01/18 23:42:47;;;;;;;4.72;2.45;;;6.20;99.90;;;;;;10357058;28;20095;-52
2021/01/18 23:48:08;;;;;;;21.10;4.78;;;6.10;99.90;;;;;;10357755;28;20080;-52
2021/01/18 23:53:29;;;;;;;9.32;2.15;;;6.30;99.90;;;;;;10357840;28;20526;-53
2021/01/18 23:58:52;;;;;;;8.15;2.50;;;6.20;99.90;;;;;;10356351;28;20418;-52
